GQPA/ATR METAR and TAF weather

Enter ICAO airport designator
Station Type Date Time Source
GQPA METAR 2022/01/29 09:00 UTC NOAA

GQPA 290900Z 02008KT 8000 NSC 21/M02 Q1018


Station Type Date Time Source
GQPA Decoded METAR 2022/01/29 09:00 UTC NOAA

Atar, Mauritania (GQPA) 20-31N 013-04W 224M
Jan 29, 2022 - 04:00 AM EST / 2022.01.29 0900 UTC
Wind: from the NNE (020 degrees) at 9 MPH (8 KT):0
Visibility: 4 mile(s):0
Temperature: 69 F (21 C)
Dew Point: 28 F (-2 C)
Relative Humidity: 21%
Pressure (altimeter): 30.06 in. Hg (1018 hPa)
ob: GQPA 290900Z 02008KT 8000 NSC 21/M02 Q1018
cycle: 9

Station Type Date Time Source
GQPA TAF UTC NOAA

Error!

Example: see airport list